Etusivu
METAR-TAF:

METAR-TAF

Lentoasemat :

Melun, Ranska

Leveyspiiri: 48-37N, Pituuspiiri: 002-41E, korkeus merenpinnasta: 95 m

Tämänhetkinen sää

Tämä raportti tehtiin 42 minuuttia sitten, kello 14.30 UTC
Tuuli 15 kn lännestä
Lämpötila 18°C
Kosteus 49%
Ilmanpaine 1004 hPa
Näkyvyys 10 km tai enemmän
ei pilviä alle 1500 m:ssä eikä cumulonimbus-pilviä

METAR: LFPM 061430Z AUTO 26015KT CAVOK 18/07 Q1004

Aika: 17:12 (15:12 UTC)


TAF: puuttuu

Säähavainnot ja -ennusteet yli 4000 lentoasemalta (METAR- ja TAF-raportit).

Käytössä olevat sääasemat on merkitty karttaan keltaisilla ja punaisilla pisteillä.

Aseta hiiri pisteen päälle nähdäksesi sääaseman nimen.

Klikkaa sitten nähdäksesi säähavainnot ja -ennusteet.

Kartan vaihtaminen: klikkaa mustalla rastilla varustettuja vihreitä pisteitä, niin voit zoomata sisään; viivalla varustettua vihreää pistettä, niin voit zoomata ulos tai vihreitä nuolia, niin pääset viereisille kartoille.


METAR-TAF: